Nepton, Kentucky
Current Conditions -  °F | °C
As of 2:15 PM on Monday 20 Oct 2014 (Local Time) from KFGX Reporting Station
Overcast Overcast  
Wind Chill: 57°   Ceiling: 4300
Heat Index: 57°   Visibility: 10mi
Dew Point: 47°   Wind: 13mph
Humidity: 70%   Direction: 230°SW
Pressure: 29.96"   Gusts: 23mph
Location:  38.4071°N, 83.873°W
Report Text: KFGX 201815Z AUTO 23011G20KT 10SM OVC043 14/09 A2996 RMK AO2 T01410086
Loading
Personal Weather Stations






























Interactive Weather Map
Tropical Storm Tracking
New forecast layout! Learn more

10-Day Weather Forecast

Advertisements
Track Severe Weather on mobile